USCGC Tern — NEOT — position and weather

sailwx.info

Track history (hours):
 
Tides and Currents Weather Stations Pressure Air Temp Water Temp Dewpoint Dewpoint Depression Visibility Wind Speed Wind Dir Waves Ship Positions

USCGC Tern

Last reported at 2014-Aug-29 18:31 UTC. Time now 2014-Aug-30 16:34 UTC.
Position N 34°22' W 120°03'.

Length 26 m; draft 12 m.

Type: Military. MMSI: 366999711.

Date/timePositionNaut miles runAvg speedWind from/ knotsBaromVisibWave heightAir tempDewpointWater temp
2014-Aug-29 18:31N 34°22' W 120°03'5 5.4
2014-Aug-29 17:33N 34°22' W 119°57'6 5.5
2014-Aug-29 16:33N 34°22' W 119°50'5 5.2
2014-Aug-29 15:34N 34°23' W 119°44'2 0.5
2014-Aug-29 10:29N 34°24' W 119°42'0 0.0
2014-Aug-29 09:08N 34°24' W 119°42'0 0.0
2014-Aug-29 08:29N 34°24' W 119°42'0 0.0
2014-Aug-29 04:29N 34°24' W 119°42'0 0.0
2014-Aug-29 02:06N 34°24' W 119°42'0 0.0
2014-Aug-28 20:29N 34°24' W 119°42'0 0.0
2014-Aug-28 19:32N 34°24' W 119°42'0 0.0
2014-Aug-28 13:09N 34°24' W 119°42'0 0.0
2014-Aug-28 12:26N 34°24' W 119°42'0 0.0
2014-Aug-28 11:32N 34°24' W 119°42'0 0.0
2014-Aug-28 04:17N 34°24' W 119°42'0 0.0
2014-Aug-28 03:05N 34°24' W 119°42'0 0.1
2014-Aug-28 02:26N 34°24' W 119°42'0 0.0
2014-Aug-28 01:33N 34°24' W 119°42'0 0.0
2014-Aug-28 00:26N 34°24' W 119°42'0 0.1
2014-Aug-27 23:29N 34°24' W 119°42'0 0.0
2014-Aug-27 21:24N 34°24' W 119°42'0 0.0
2014-Aug-27 20:18N 34°24' W 119°42'0 0.0
2014-Aug-27 19:24N 34°24' W 119°42'0 0.0
2014-Aug-27 18:30N 34°24' W 119°42'83 1.9
2014-Aug-25 22:18N 33°43' W 118°15'1 1.7
2014-Aug-25 21:29N 33°44' W 118°16'1 0.5
2014-Aug-25 20:31N 33°43' W 118°16'0 0.0
2014-Aug-25 19:22N 33°43' W 118°16'2 2.1
2014-Aug-25 18:33N 33°42' W 118°16'1 0.1
2014-Aug-24 15:21N 33°43' W 118°15'1 0.1
2014-Aug-24 06:33N 33°44' W 118°16'0 0.0
2014-Aug-24 04:33N 33°44' W 118°16'0 0.0
2014-Aug-24 03:18N 33°44' W 118°16'0 0.0
2014-Aug-24 02:06N 33°44' W 118°16'0 0.0
2014-Aug-24 01:32N 33°44' W 118°16'0 0.0
2014-Aug-24 00:18N 33°44' W 118°16'0 0.1
2014-Aug-23 23:33N 33°44' W 118°16'0 0.0
2014-Aug-22 23:15N 33°44' W 118°16'0 0.1
2014-Aug-22 22:33N 33°44' W 118°16'19 4.6
2014-Aug-22 18:22N 33°35' W 117°55'  
Track history (hours):
 
Tides and Currents Weather Stations Pressure Air Temp Water Temp Dewpoint Dewpoint Depression Visibility Wind Speed Wind Dir Waves Ship Positions

USCGC Tern

Last reported at 2014-Aug-29 18:31 UTC. Time now 2014-Aug-30 16:34 UTC.
Position N 34°22' W 120°03'.

Length 26 m; draft 12 m.

Type: Military. MMSI: 366999711.

Date/timePositionNaut miles runAvg speedWind from/ knotsBaromVisibWave heightAir tempDewpointWater temp
2014-Aug-29 18:31N 34°22' W 120°03'5 5.4
2014-Aug-29 17:33N 34°22' W 119°57'6 5.5
2014-Aug-29 16:33N 34°22' W 119°50'5 5.2
2014-Aug-29 15:34N 34°23' W 119°44'2 0.5
2014-Aug-29 10:29N 34°24' W 119°42'0 0.0
2014-Aug-29 09:08N 34°24' W 119°42'0 0.0
2014-Aug-29 08:29N 34°24' W 119°42'0 0.0
2014-Aug-29 04:29N 34°24' W 119°42'0 0.0
2014-Aug-29 02:06N 34°24' W 119°42'0 0.0
2014-Aug-28 20:29N 34°24' W 119°42'0 0.0
2014-Aug-28 19:32N 34°24' W 119°42'0 0.0
2014-Aug-28 13:09N 34°24' W 119°42'0 0.0
2014-Aug-28 12:26N 34°24' W 119°42'0 0.0
2014-Aug-28 11:32N 34°24' W 119°42'0 0.0
2014-Aug-28 04:17N 34°24' W 119°42'0 0.0
2014-Aug-28 03:05N 34°24' W 119°42'0 0.1
2014-Aug-28 02:26N 34°24' W 119°42'0 0.0
2014-Aug-28 01:33N 34°24' W 119°42'0 0.0
2014-Aug-28 00:26N 34°24' W 119°42'0 0.1
2014-Aug-27 23:29N 34°24' W 119°42'0 0.0
2014-Aug-27 21:24N 34°24' W 119°42'0 0.0
2014-Aug-27 20:18N 34°24' W 119°42'0 0.0
2014-Aug-27 19:24N 34°24' W 119°42'0 0.0
2014-Aug-27 18:30N 34°24' W 119°42'83 1.9
2014-Aug-25 22:18N 33°43' W 118°15'1 1.7
2014-Aug-25 21:29N 33°44' W 118°16'1 0.5
2014-Aug-25 20:31N 33°43' W 118°16'0 0.0
2014-Aug-25 19:22N 33°43' W 118°16'2 2.1
2014-Aug-25 18:33N 33°42' W 118°16'1 0.1
2014-Aug-24 15:21N 33°43' W 118°15'1 0.1
2014-Aug-24 06:33N 33°44' W 118°16'0 0.0
2014-Aug-24 04:33N 33°44' W 118°16'0 0.0
2014-Aug-24 03:18N 33°44' W 118°16'0 0.0
2014-Aug-24 02:06N 33°44' W 118°16'0 0.0
2014-Aug-24 01:32N 33°44' W 118°16'0 0.0
2014-Aug-24 00:18N 33°44' W 118°16'0 0.1
2014-Aug-23 23:33N 33°44' W 118°16'0 0.0
2014-Aug-22 23:15N 33°44' W 118°16'0 0.1
2014-Aug-22 22:33N 33°44' W 118°16'19 4.6
2014-Aug-22 18:22N 33°35' W 117°55'  

Dump ship's entire track history